createdAt,value
2018-02-23T00:01:39.565Z,74.60
2018-02-23T00:04:07.875Z,74.90
2018-02-23T00:06:36.142Z,74.90
2018-02-23T00:09:04.632Z,74.90
2018-02-23T00:11:32.897Z,75.00
2018-02-23T00:14:01.278Z,74.80
2018-02-23T00:16:29.476Z,74.70
2018-02-23T00:18:58.543Z,74.30
2018-02-23T00:21:26.780Z,73.70
2018-02-23T00:23:55.863Z,74.10
2018-02-23T00:26:24.118Z,73.50
2018-02-23T00:28:53.182Z,74.00
2018-02-23T00:31:21.548Z,74.00
2018-02-23T00:33:49.835Z,74.00
2018-02-23T00:36:18.112Z,74.50
2018-02-23T00:38:46.393Z,74.20
2018-02-23T00:41:14.619Z,73.60
2018-02-23T00:43:42.861Z,73.60
2018-02-23T00:46:11.891Z,74.10
2018-02-23T00:48:40.121Z,74.10
2018-02-23T00:51:09.116Z,72.90
2018-02-23T00:53:38.123Z,73.70
2018-02-23T00:56:06.466Z,73.70
2018-02-23T00:58:34.739Z,73.80
2018-02-23T01:01:02.980Z,74.00
2018-02-23T01:03:31.290Z,73.70
2018-02-23T01:05:59.500Z,73.70
2018-02-23T01:08:28.514Z,73.80
2018-02-23T01:10:56.835Z,73.80
2018-02-23T01:13:25.072Z,73.10
2018-02-23T01:15:53.386Z,73.60
2018-02-23T01:18:21.587Z,73.20
2018-02-23T01:20:50.604Z,73.90
2018-02-23T01:23:18.928Z,73.90
2018-02-23T01:25:47.299Z,73.60
2018-02-23T01:28:15.559Z,74.10
2018-02-23T01:30:43.857Z,73.90
2018-02-23T01:33:12.065Z,73.60
2018-02-23T01:35:41.133Z,74.00
2018-02-23T01:38:09.402Z,74.00
2018-02-23T01:40:37.603Z,74.00
2018-02-23T01:43:06.617Z,73.70
2018-02-23T01:45:34.945Z,73.70
2018-02-23T01:48:03.323Z,73.60
2018-02-23T01:50:43.291Z,74.10
2018-02-23T01:53:12.367Z,74.00
2018-02-23T01:55:40.588Z,74.00
2018-02-23T01:58:08.839Z,73.90
2018-02-23T02:00:38.011Z,74.20
2018-02-23T02:03:06.286Z,74.10
2018-02-23T02:05:34.561Z,74.20
2018-02-23T02:08:02.839Z,73.80
2018-02-23T02:10:31.063Z,74.00
2018-02-23T02:12:59.389Z,74.00
2018-02-23T02:15:27.604Z,74.00
2018-02-23T02:17:55.941Z,74.70
2018-02-23T02:20:24.176Z,74.00
2018-02-23T02:22:52.396Z,74.30
2018-02-23T02:25:20.676Z,74.40
2018-02-23T02:27:48.940Z,74.40
2018-02-23T02:30:17.157Z,74.10
2018-02-23T02:32:45.417Z,74.60
2018-02-23T02:35:14.483Z,74.20
2018-02-23T02:37:42.719Z,74.10
2018-02-23T02:40:11.034Z,74.30
2018-02-23T02:42:39.258Z,74.40
2018-02-23T02:45:07.591Z,74.40
2018-02-23T02:47:35.815Z,74.20
2018-02-23T02:50:04.145Z,74.20
2018-02-23T02:52:32.416Z,74.20
2018-02-23T02:55:00.687Z,73.90
2018-02-23T02:57:29.057Z,74.00
2018-02-23T02:59:57.279Z,73.90
2018-02-23T03:02:25.550Z,73.80
2018-02-23T03:04:54.557Z,73.90
2018-02-23T03:07:22.880Z,73.90
2018-02-23T03:09:51.094Z,74.00
2018-02-23T03:12:20.089Z,74.50
2018-02-23T03:14:48.345Z,74.50
2018-02-23T03:17:17.339Z,74.80
2018-02-23T03:19:45.599Z,74.80
2018-02-23T03:22:13.841Z,74.50
2018-02-23T03:24:42.145Z,75.10
2018-02-23T03:27:10.420Z,74.80
2018-02-23T03:29:38.684Z,74.90
2018-02-23T03:32:06.971Z,74.80
2018-02-23T03:34:35.203Z,74.90
2018-02-23T03:37:03.521Z,75.40
2018-02-23T03:39:31.756Z,75.30
2018-02-23T03:42:00.073Z,75.20
2018-02-23T03:44:28.269Z,74.70
2018-02-23T03:46:57.291Z,75.30
2018-02-23T03:49:25.616Z,75.30
2018-02-23T03:51:53.817Z,75.20
2018-02-23T03:54:22.819Z,76.20
2018-02-23T03:56:51.827Z,76.10
2018-02-23T03:59:20.152Z,76.10
2018-02-23T04:01:48.428Z,76.30
2018-02-23T04:04:16.715Z,75.70
2018-02-23T04:06:45.040Z,75.40
2018-02-23T04:09:13.259Z,75.50
2018-02-23T04:11:41.532Z,74.90
2018-02-23T04:14:09.758Z,75.30
2018-02-23T04:16:38.281Z,75.40
2018-02-23T04:19:06.562Z,75.40
2018-02-23T04:21:34.776Z,75.40
2018-02-23T04:24:03.111Z,75.10
2018-02-23T04:26:31.431Z,75.10
2018-02-23T04:28:59.736Z,75.00
2018-02-23T04:31:28.042Z,74.80
2018-02-23T04:33:56.352Z,74.60
2018-02-23T04:36:24.694Z,75.10
2018-02-23T04:38:53.072Z,74.70
2018-02-23T04:41:21.298Z,74.50
2018-02-23T04:43:49.622Z,74.70
2018-02-23T04:46:17.824Z,74.90
2018-02-23T04:48:47.099Z,74.90
2018-02-23T04:51:15.379Z,74.90
2018-02-23T04:53:43.859Z,75.30
2018-02-23T04:56:12.079Z,75.50
2018-02-23T04:58:40.322Z,75.00
2018-02-23T05:01:08.677Z,75.30
2018-02-23T05:03:36.867Z,75.70
2018-02-23T05:06:05.947Z,75.20
2018-02-23T05:08:34.159Z,75.10
2018-02-23T05:11:02.394Z,74.90
2018-02-23T05:13:30.670Z,74.90
2018-02-23T05:15:58.872Z,75.20
2018-02-23T05:18:27.136Z,75.30
2018-02-23T05:20:56.151Z,75.20
2018-02-23T05:23:25.205Z,75.30
2018-02-23T05:25:53.484Z,75.30
2018-02-23T05:28:21.859Z,75.40
2018-02-23T05:30:50.064Z,74.60
2018-02-23T05:33:19.138Z,74.90
2018-02-23T05:35:47.377Z,74.90
2018-02-23T05:38:15.603Z,74.80
2018-02-23T05:40:44.672Z,75.40
2018-02-23T05:43:12.953Z,75.40
2018-02-23T05:45:41.169Z,74.60
2018-02-23T05:48:09.436Z,75.20
2018-02-23T05:50:37.680Z,74.90
2018-02-23T05:53:05.913Z,75.30
2018-02-23T05:55:34.222Z,75.10
2018-02-23T05:58:02.428Z,75.00
2018-02-23T06:00:30.771Z,74.60
2018-02-23T06:02:58.975Z,75.10
2018-02-23T06:05:27.356Z,75.50
2018-02-23T06:07:56.388Z,75.50
2018-02-23T06:10:24.639Z,75.50
2018-02-23T06:12:52.906Z,75.70
2018-02-23T06:15:21.151Z,75.30
2018-02-23T06:17:55.049Z,75.70
2018-02-23T06:20:29.214Z,75.20
2018-02-23T06:22:57.475Z,75.10
2018-02-23T06:25:25.717Z,74.60
2018-02-23T06:27:54.090Z,75.00
2018-02-23T06:30:22.320Z,74.50
2018-02-23T06:32:50.642Z,74.50
2018-02-23T06:35:18.848Z,75.00
2018-02-23T06:37:47.089Z,75.00
2018-02-23T06:40:15.363Z,75.00
2018-02-23T06:42:43.592Z,74.90
2018-02-23T06:45:11.915Z,74.50
2018-02-23T06:47:40.191Z,74.60
2018-02-23T06:50:08.432Z,74.90
2018-02-23T06:52:36.741Z,74.50
2018-02-23T06:55:04.954Z,74.00
2018-02-23T06:57:33.200Z,73.80
2018-02-23T07:00:01.423Z,74.30
2018-02-23T07:02:29.744Z,74.30
2018-02-23T07:04:57.975Z,74.40
2018-02-23T07:07:26.218Z,74.30
2018-02-23T07:09:54.524Z,74.00
2018-02-23T07:12:22.845Z,73.90
2018-02-23T07:14:51.086Z,74.70
2018-02-23T07:17:19.397Z,74.40
2018-02-23T07:19:47.676Z,74.30
2018-02-23T07:22:16.062Z,74.30
2018-02-23T07:24:44.426Z,74.10
2018-02-23T07:27:12.906Z,73.90
2018-02-23T07:29:41.124Z,74.10
2018-02-23T07:32:10.176Z,74.00
2018-02-23T07:34:38.422Z,74.10
2018-02-23T07:37:06.828Z,74.20
2018-02-23T07:39:35.036Z,74.20
2018-02-23T07:42:04.081Z,74.10
2018-02-23T07:44:32.303Z,74.10
2018-02-23T07:47:00.750Z,74.30
2018-02-23T07:49:29.191Z,74.00
2018-02-23T07:51:57.509Z,73.50
2018-02-23T07:54:25.737Z,73.50
2018-02-23T07:56:53.987Z,73.90
2018-02-23T07:59:22.999Z,73.90
2018-02-23T08:01:51.328Z,74.00
2018-02-23T08:04:19.599Z,74.20
2018-02-23T08:06:47.881Z,73.80
2018-02-23T08:09:16.153Z,73.90
2018-02-23T08:11:44.426Z,74.20
2018-02-23T08:14:12.702Z,73.30
2018-02-23T08:16:40.975Z,73.50
2018-02-23T08:19:09.236Z,73.30
2018-02-23T08:21:37.526Z,73.60
2018-02-23T08:24:05.766Z,73.00
2018-02-23T08:26:34.086Z,73.70
2018-02-23T08:29:02.307Z,73.20
2018-02-23T08:31:30.630Z,73.40
2018-02-23T08:33:58.905Z,72.80
2018-02-23T08:36:27.105Z,73.70
2018-02-23T08:38:56.127Z,72.70
2018-02-23T08:41:24.447Z,72.70
2018-02-23T08:43:52.726Z,72.90
2018-02-23T08:46:21.001Z,72.90
2018-02-23T08:48:49.275Z,73.30
2018-02-23T08:51:17.652Z,72.90
2018-02-23T08:53:45.928Z,72.90
2018-02-23T08:56:14.207Z,72.60
2018-02-23T08:58:42.419Z,72.60
2018-02-23T09:01:10.753Z,71.80
2018-02-23T09:03:38.994Z,72.40
2018-02-23T09:06:07.310Z,72.10
2018-02-23T09:08:35.580Z,72.50
2018-02-23T09:11:04.188Z,72.30
2018-02-23T09:13:32.541Z,71.90
2018-02-23T09:16:00.817Z,71.50
2018-02-23T09:18:29.101Z,71.50
2018-02-23T10:49:42.758Z,69.10
2018-02-23T10:52:11.681Z,69.50
2018-02-23T10:54:39.816Z,69.00
2018-02-23T10:57:07.951Z,69.70
2018-02-23T10:59:36.106Z,69.60
2018-02-23T11:02:04.286Z,70.40
2018-02-23T11:04:32.570Z,69.70
2018-02-23T11:07:00.699Z,69.50
2018-02-23T11:09:29.597Z,69.60
2018-02-23T11:11:57.785Z,69.60
2018-02-23T11:14:26.578Z,69.70
2018-02-23T11:16:54.745Z,69.90
2018-02-23T11:19:23.610Z,69.10
2018-02-23T11:21:52.536Z,69.30
2018-02-23T11:24:20.645Z,69.30
2018-02-23T11:26:48.804Z,69.60
2018-02-23T11:29:16.949Z,69.40
2018-02-23T11:31:45.123Z,69.70
2018-02-23T11:34:14.611Z,70.10
2018-02-23T11:36:42.788Z,69.60
2018-02-23T11:39:10.995Z,69.40
2018-02-23T11:41:39.157Z,70.20
2018-02-23T11:44:07.295Z,70.30
2018-02-23T11:46:35.473Z,69.40
2018-02-23T11:49:03.581Z,70.60
2018-02-23T11:51:31.825Z,70.70
2018-02-23T11:53:59.994Z,70.20
2018-02-23T11:56:28.170Z,70.80
2018-02-23T11:58:56.285Z,70.60
2018-02-23T12:01:24.425Z,70.20
2018-02-23T12:03:52.679Z,70.20
2018-02-23T12:06:21.672Z,70.40
2018-02-23T12:08:49.813Z,70.50
2018-02-23T12:11:17.925Z,69.80
2018-02-23T12:13:46.090Z,69.10
2018-02-23T12:16:14.255Z,70.00
2018-02-23T12:18:42.428Z,70.00
2018-02-23T12:21:10.601Z,70.00
2018-02-23T12:23:38.705Z,70.30
2018-02-23T12:26:06.871Z,70.40
2018-02-23T12:28:35.001Z,69.90
2018-02-23T12:31:03.128Z,69.00
2018-02-23T12:33:31.358Z,69.30
2018-02-23T12:35:59.470Z,69.80
2018-02-23T12:38:27.653Z,69.10
2018-02-23T12:40:55.873Z,69.70
2018-02-23T12:43:24.784Z,69.80
2018-02-23T12:45:53.160Z,69.10
2018-02-23T12:48:21.311Z,69.60
2018-02-23T12:50:49.607Z,69.70
2018-02-23T12:53:17.870Z,69.80
2018-02-23T12:55:45.981Z,69.50
2018-02-23T12:58:15.739Z,68.70
2018-02-23T13:00:43.866Z,68.70
2018-02-23T13:03:12.912Z,69.20
2018-02-23T13:05:41.094Z,69.10
2018-02-23T13:08:09.213Z,69.70
2018-02-23T13:10:38.164Z,69.50
2018-02-23T13:13:06.323Z,69.50
2018-02-23T13:15:34.469Z,69.70
2018-02-23T13:18:02.606Z,69.30
2018-02-23T13:20:30.769Z,69.20
2018-02-23T13:22:59.004Z,70.10
2018-02-23T13:25:27.115Z,70.20
2018-02-23T13:28:00.916Z,69.50
2018-02-23T13:30:29.063Z,69.70
2018-02-23T13:32:57.284Z,69.70
2018-02-23T13:35:25.397Z,70.50
2018-02-23T13:37:53.577Z,70.20
2018-02-23T13:40:21.735Z,70.00
2018-02-23T13:42:49.869Z,69.10
2018-02-23T13:45:18.034Z,70.10
2018-02-23T13:47:46.267Z,69.60
2018-02-23T13:50:14.400Z,69.40
2018-02-23T13:52:42.584Z,69.90
2018-02-23T13:55:10.724Z,70.00
2018-02-23T13:57:38.877Z,69.90
2018-02-23T14:00:07.030Z,70.50
2018-02-23T14:02:35.289Z,70.50
2018-02-23T14:05:03.410Z,70.80
2018-02-23T14:07:33.069Z,71.40
2018-02-23T14:10:01.202Z,71.40
2018-02-23T14:12:30.228Z,71.00
2018-02-23T14:14:58.340Z,71.10
2018-02-23T14:17:26.673Z,71.10
2018-02-23T14:19:54.848Z,71.20
2018-02-23T14:22:22.950Z,70.70
2018-02-23T14:24:51.093Z,71.00
2018-02-23T14:27:19.227Z,71.40
2018-02-23T14:29:48.188Z,71.50
2018-02-23T14:32:16.325Z,71.40
2018-02-23T14:34:44.493Z,71.30
2018-02-23T14:37:12.675Z,71.60
2018-02-23T14:39:40.942Z,72.10
2018-02-23T14:42:09.217Z,72.30
2018-02-23T14:44:37.346Z,71.90
2018-02-23T14:47:06.248Z,71.50
2018-02-23T14:49:35.176Z,71.30
2018-02-23T14:52:03.320Z,71.30
2018-02-23T14:54:31.479Z,71.50
2018-02-23T14:57:00.408Z,70.70
2018-02-23T14:59:28.527Z,70.80
2018-02-23T15:01:56.669Z,72.00
2018-02-23T15:04:24.831Z,71.20
2018-02-23T15:06:53.445Z,71.00
2018-02-23T15:09:23.190Z,71.20
2018-02-23T15:11:51.347Z,71.20
2018-02-23T15:14:20.285Z,71.20
2018-02-23T15:16:48.497Z,71.10
2018-02-23T15:19:16.654Z,71.20
2018-02-23T15:21:44.852Z,71.30
2018-02-23T15:24:13.065Z,70.80
2018-02-23T15:26:41.191Z,71.10
2018-02-23T15:29:10.095Z,71.20
2018-02-23T15:31:50.976Z,71.00
2018-02-23T15:34:19.863Z,70.90
2018-02-23T15:36:48.029Z,70.90
2018-02-23T15:39:16.958Z,71.30
2018-02-23T15:41:45.217Z,71.30
2018-02-23T15:44:13.376Z,71.00
2018-02-23T15:46:41.539Z,70.80
2018-02-23T15:49:28.326Z,71.50
2018-02-23T15:51:56.950Z,71.30
2018-02-23T15:54:25.141Z,70.90
2018-02-23T15:56:53.278Z,71.30
2018-02-23T15:59:21.476Z,71.50
2018-02-23T16:01:49.619Z,72.20
2018-02-23T16:04:18.577Z,72.00
2018-02-23T16:06:46.720Z,72.10
2018-02-23T16:09:14.883Z,71.60
2018-02-23T16:11:43.106Z,72.00
2018-02-23T16:14:11.257Z,72.40
2018-02-23T16:16:39.435Z,72.00
2018-02-23T16:19:07.673Z,72.10
2018-02-23T16:21:35.812Z,72.70
2018-02-23T16:24:04.770Z,72.50
2018-02-23T16:26:32.934Z,72.40
2018-02-23T16:29:01.070Z,72.50
2018-02-23T16:31:29.228Z,72.70
2018-02-23T16:33:57.373Z,72.50
2018-02-23T16:36:26.301Z,72.40
2018-02-23T16:38:54.469Z,72.40
2018-02-23T16:41:22.610Z,72.70
2018-02-23T16:43:51.528Z,72.80
2018-02-23T16:46:19.672Z,73.20
2018-02-23T16:48:48.586Z,73.40
2018-02-23T16:51:16.750Z,73.30
2018-02-23T16:53:44.897Z,73.20
2018-02-23T16:56:13.038Z,73.50
2018-02-23T16:58:41.263Z,72.80
2018-02-23T17:01:09.382Z,73.00
2018-02-23T17:03:37.580Z,73.40
2018-02-23T17:06:05.752Z,73.40
2018-02-23T17:08:33.910Z,73.40
2018-02-23T17:11:02.043Z,72.80
2018-02-23T17:13:30.329Z,73.20
2018-02-23T17:15:58.468Z,73.30
2018-02-23T17:18:27.383Z,73.30
2018-02-23T17:20:55.537Z,73.40
2018-02-23T17:23:23.729Z,73.80
2018-02-23T17:25:51.870Z,73.60
2018-02-23T17:28:20.017Z,73.70
2018-02-23T17:30:48.182Z,73.60
2018-02-23T17:33:16.415Z,73.80
2018-02-23T17:35:44.573Z,74.20
2018-02-23T17:38:12.741Z,73.50
2018-02-23T17:40:41.040Z,73.90
2018-02-23T17:43:09.954Z,73.60
2018-02-23T17:45:38.296Z,73.60
2018-02-23T17:48:06.448Z,73.50
2018-02-23T17:50:34.597Z,73.60
2018-02-23T17:53:02.820Z,73.80
2018-02-23T17:55:31.057Z,74.20
2018-02-23T17:57:59.504Z,73.70
2018-02-23T18:00:27.638Z,73.90
2018-02-23T18:02:55.819Z,74.00
2018-02-23T18:05:23.979Z,74.00
2018-02-23T18:07:52.147Z,74.20
2018-02-23T18:10:20.353Z,74.20
2018-02-23T18:12:48.478Z,74.10
2018-02-23T18:15:17.486Z,73.70
2018-02-23T18:17:45.634Z,73.80
2018-02-23T18:20:13.814Z,74.10
2018-02-23T18:22:42.749Z,73.90
2018-02-23T18:25:10.868Z,74.60
2018-02-23T18:27:39.887Z,73.40
2018-02-23T18:30:08.044Z,73.40
2018-02-23T18:32:36.971Z,73.70
2018-02-23T18:35:05.237Z,73.70
2018-02-23T18:37:33.397Z,73.80
2018-02-23T18:40:01.529Z,73.60
2018-02-23T18:42:30.458Z,74.10
2018-02-23T18:44:58.599Z,74.00
2018-02-23T18:47:27.498Z,74.00
2018-02-23T18:49:56.461Z,74.10
2018-02-23T18:52:24.676Z,74.10
2018-02-23T18:54:54.251Z,73.50
2018-02-23T18:57:21.848Z,73.70
2018-02-23T18:59:50.005Z,73.80
2018-02-23T19:02:18.179Z,73.80
2018-02-23T19:04:46.333Z,73.60
2018-02-23T19:07:15.296Z,74.00
2018-02-23T19:09:43.547Z,74.00
2018-02-23T19:12:11.804Z,73.50
2018-02-23T19:14:40.000Z,73.80
2018-02-23T19:17:08.107Z,73.60
2018-02-23T19:19:37.036Z,74.10
2018-02-23T19:22:05.166Z,74.00
2018-02-23T19:24:34.194Z,73.90
2018-02-23T19:27:02.318Z,73.80
2018-02-23T19:29:30.453Z,74.10
2018-02-23T19:31:58.629Z,74.00
2018-02-23T19:34:27.606Z,74.10
2018-02-23T19:36:55.739Z,74.60
2018-02-23T19:39:24.668Z,74.80
2018-02-23T19:41:52.821Z,74.70
2018-02-23T19:44:21.004Z,74.60
2018-02-23T19:46:49.152Z,74.20
2018-02-23T19:49:18.110Z,73.90
2018-02-23T19:51:46.342Z,73.90
2018-02-23T19:54:15.330Z,74.10
2018-02-23T19:56:43.503Z,74.10
2018-02-23T19:59:11.664Z,73.90
2018-02-23T20:01:39.851Z,74.50
2018-02-23T20:04:08.051Z,74.50
2018-02-23T20:06:36.549Z,75.40
2018-02-23T20:09:04.691Z,74.20
2018-02-23T20:11:32.925Z,74.20
2018-02-23T20:14:01.118Z,74.50
2018-02-23T20:16:29.266Z,73.90
2018-02-23T20:18:58.274Z,74.80
2018-02-23T20:21:26.576Z,74.80
2018-02-23T20:23:54.795Z,74.90
2018-02-23T20:26:22.966Z,74.90
2018-02-23T20:28:51.092Z,74.20
2018-02-23T20:31:19.241Z,74.50
2018-02-23T20:33:47.390Z,74.30
2018-02-23T20:36:16.316Z,74.70
2018-02-23T20:38:44.593Z,74.70
2018-02-23T20:41:12.898Z,74.30
2018-02-23T20:43:41.172Z,74.20
2018-02-23T20:46:09.375Z,74.50
2018-02-23T20:48:37.585Z,73.90
2018-02-23T20:51:05.745Z,74.20
2018-02-23T20:53:33.867Z,74.00
2018-02-23T20:56:02.117Z,74.50
2018-02-23T20:58:30.285Z,74.40
2018-02-23T21:00:58.450Z,75.00
2018-02-23T21:03:26.715Z,73.80
2018-02-23T21:05:54.881Z,74.40
2018-02-23T21:08:23.043Z,74.80
2018-02-23T21:10:52.007Z,73.90
2018-02-23T21:13:20.259Z,73.90
2018-02-23T21:15:48.423Z,73.70
2018-02-23T21:18:16.678Z,73.70
2018-02-23T21:20:44.819Z,73.90
2018-02-23T21:23:13.816Z,73.20
2018-02-23T21:25:41.985Z,73.30
2018-02-23T21:28:10.974Z,73.30
2018-02-23T21:30:39.932Z,73.70
2018-02-23T21:33:08.162Z,73.70
2018-02-23T21:35:36.320Z,73.00
2018-02-23T21:38:05.210Z,73.00
2018-02-23T21:40:33.346Z,73.00
2018-02-23T21:43:02.305Z,72.70
2018-02-23T21:45:30.506Z,72.70
2018-02-23T21:47:58.726Z,72.20
2018-02-23T21:50:26.847Z,71.70
2018-02-23T21:52:55.013Z,72.20
2018-02-23T21:55:23.150Z,72.00
2018-02-23T21:57:51.290Z,72.20
2018-02-23T22:00:20.268Z,72.30
2018-02-23T22:02:50.011Z,71.70
2018-02-23T22:05:18.973Z,71.40
2018-02-23T22:07:47.901Z,71.80
2018-02-23T22:10:16.086Z,71.70
2018-02-23T22:12:44.334Z,71.70
2018-02-23T22:15:12.509Z,72.00
2018-02-23T22:17:41.399Z,72.40
2018-02-23T22:20:09.676Z,72.40
2018-02-23T22:34:11.839Z,71.50
2018-02-23T22:36:39.981Z,71.50
2018-02-23T22:39:08.232Z,71.90
2018-02-23T22:41:37.172Z,72.20
2018-02-23T22:44:05.519Z,72.00
2018-02-23T22:46:33.801Z,71.80
2018-02-23T22:49:01.928Z,72.40
2018-02-23T22:51:30.892Z,72.30
2018-02-23T22:53:59.136Z,72.20
2018-02-23T22:56:27.274Z,72.50
2018-02-23T22:58:56.194Z,72.70
2018-02-23T23:01:24.324Z,72.70
2018-02-23T23:03:52.512Z,72.30
2018-02-23T23:06:21.440Z,72.50
2018-02-23T23:08:49.607Z,72.40
2018-02-23T23:11:17.767Z,72.60
2018-02-23T23:13:46.770Z,72.10
2018-02-23T23:16:14.927Z,72.10
2018-02-23T23:18:43.102Z,71.60
2018-02-23T23:21:11.584Z,71.70
2018-02-23T23:23:39.726Z,72.30
2018-02-23T23:26:08.650Z,72.30
2018-02-23T23:28:36.822Z,72.30
2018-02-23T23:31:04.946Z,72.70
2018-02-23T23:33:33.866Z,72.20
2018-02-23T23:36:02.029Z,71.50
2018-02-23T23:38:31.035Z,71.60
2018-02-23T23:40:59.218Z,71.50
2018-02-23T23:43:27.352Z,71.50
2018-02-23T23:45:56.282Z,72.20
2018-02-23T23:48:24.406Z,72.10
2018-02-23T23:50:53.428Z,73.10
2018-02-23T23:53:21.634Z,72.30
2018-02-23T23:55:50.497Z,72.00
2018-02-23T23:58:18.660Z,72.10
